Neptune Kefalonia — SVBS2 — position and weather

sailwx.info

Track history (hours):
 
Tides and Currents Weather Stations Pressure Air Temp Water Temp Dewpoint Dewpoint Depression Visibility Wind Speed Wind Dir Waves Ship Positions

Neptune Kefalonia

Last reported at 2018-Feb-17 15:19 UTC. Time now 2018-Feb-19 16:22 UTC.
Position N 38°52' E 002°58'.

Length 169 m; draft 8.3 m.

Type: Cargo ship. MMSI: 241241000.

Date/timePositionNaut miles runAvg speedWind from/ knotsBaromVisibWave heightAir tempDewpointWater temp
2018-Feb-17 15:19N 38°52' E 002°58'516.1
2018-Feb-17 15:00N 38°50' E 002°52'915.7
2018-Feb-17 14:24N 38°45' E 002°42'616.0
2018-Feb-17 14:00N 38°42' E 002°34'13117.3
2018-Feb-17 06:24N 37°36' E 000°10'1813.7
2018-Feb-17 05:05N 37°26' W 000°09'213.3
2018-Feb-17 04:58N 37°25' W 000°11'613.3
2018-Feb-17 04:30N 37°22' W 000°18'713.4
2018-Feb-17 04:00N 37°18' W 000°25'1013.5
2018-Feb-17 03:17N 37°13' W 000°34'413.4
2018-Feb-17 02:58N 37°11' W 000°39'913.5
2018-Feb-17 02:19N 37°06' W 000°48'  
2018-Feb-14 05:18N 37°33' W 009°21'717.9
2018-Feb-14 04:55N 37°40' W 009°19'717.8
2018-Feb-14 04:31N 37°46' W 009°16'917.9
2018-Feb-14 04:00N 37°55' W 009°12'917.6
2018-Feb-14 03:30N 38°03' W 009°09'917.5
2018-Feb-14 03:00N 38°12' W 009°05'917.7
2018-Feb-14 02:30N 38°20' W 009°01'815.3
2018-Feb-14 02:00N 38°27' W 008°58'510.7
2018-Feb-14 01:30N 38°31' W 008°53'1 0.1
2018-Feb-13 14:49N 38°31' W 008°52'1 3.1
2018-Feb-13 14:28N 38°31' W 008°53'4 8.9
2018-Feb-13 14:00N 38°28' W 008°57'5 9.3
2018-Feb-13 13:30N 38°25' W 009°02'5 9.1
2018-Feb-13 13:00N 38°24' W 009°07'4 8.9
2018-Feb-13 12:30N 38°23' W 009°13'4 8.6
2018-Feb-13 12:00N 38°24' W 009°18'5 9.0
2018-Feb-13 11:30N 38°27' W 009°22'5 9.1
2018-Feb-13 11:00N 38°30' W 009°27'5 9.1
2018-Feb-13 10:30N 38°33' W 009°31'510.0
2018-Feb-13 10:00N 38°36' W 009°36'612.9
2018-Feb-13 09:30N 38°41' W 009°42'713.1
2018-Feb-13 09:00N 38°47' W 009°43'713.2
2018-Feb-13 08:30N 38°54' W 009°43'713.0
2018-Feb-13 08:00N 39°00' W 009°43'713.2
2018-Feb-13 07:30N 39°07' W 009°43'713.5
2018-Feb-13 07:00N 39°14' W 009°44'713.2
2018-Feb-13 06:30N 39°20' W 009°44'812.9
2018-Feb-13 05:51N 39°29' W 009°43'5 0.1
2018-Feb-11 12:44N 39°23' W 009°45'312.0
2018-Feb-11 12:29N 39°21' W 009°45'612.0
2018-Feb-11 12:00N 39°15' W 009°46'612.0
2018-Feb-11 11:29N 39°09' W 009°48'611.9
2018-Feb-11 11:00N 39°03' W 009°49'612.0
2018-Feb-11 10:30N 38°57' W 009°50'612.0
2018-Feb-11 10:00N 38°51' W 009°51'611.7
2018-Feb-11 09:30N 38°45' W 009°51'611.6
2018-Feb-11 09:00N 38°40' W 009°50'612.3
2018-Feb-11 08:30N 38°34' W 009°48'714.2
2018-Feb-11 08:01N 38°27' W 009°46'815.8
2018-Feb-11 07:30N 38°19' W 009°44'611.6
2018-Feb-11 06:57N 38°13' W 009°42'4 7.9
2018-Feb-11 06:30N 38°09' W 009°41'4 7.8
2018-Feb-11 05:58N 38°05' W 009°40'7 7.7
2018-Feb-11 05:01N 37°58' W 009°38'0 7.8
2018-Feb-11 05:00N 37°58' W 009°38'4 8.0
2018-Feb-11 04:27N 37°54' W 009°37'4 8.0
2018-Feb-11 04:00N 37°50' W 009°36'4 7.9
2018-Feb-11 03:29N 37°46' W 009°35'4 7.8
2018-Feb-11 03:00N 37°42' W 009°34'216 8.1
2018-Feb-10 00:22N 35°58' W 005°37'3 7.1
2018-Feb-09 23:53N 35°59' W 005°33'3 7.9
2018-Feb-09 23:30N 35°60' W 005°30'4 8.5
2018-Feb-09 23:00N 36°01' W 005°25'2 8.7
2018-Feb-09 22:46N 36°02' W 005°22'2 8.6
2018-Feb-09 22:31N 36°02' W 005°20'5 9.6
2018-Feb-09 22:01N 36°05' W 005°15'4 0.2
2018-Feb-08 23:30N 36°01' W 005°16'612.1
2018-Feb-08 23:00N 35°59' W 005°22'611.6
2018-Feb-08 22:30N 35°56' W 005°29'  
Track history (hours):
 
Tides and Currents Weather Stations Pressure Air Temp Water Temp Dewpoint Dewpoint Depression Visibility Wind Speed Wind Dir Waves Ship Positions

Neptune Kefalonia

Last reported at 2018-Feb-17 15:19 UTC. Time now 2018-Feb-19 16:22 UTC.
Position N 38°52' E 002°58'.

Length 169 m; draft 8.3 m.

Type: Cargo ship. MMSI: 241241000.

Date/timePositionNaut miles runAvg speedWind from/ knotsBaromVisibWave heightAir tempDewpointWater temp
2018-Feb-17 15:19N 38°52' E 002°58'516.1
2018-Feb-17 15:00N 38°50' E 002°52'915.7
2018-Feb-17 14:24N 38°45' E 002°42'616.0
2018-Feb-17 14:00N 38°42' E 002°34'13117.3
2018-Feb-17 06:24N 37°36' E 000°10'1813.7
2018-Feb-17 05:05N 37°26' W 000°09'213.3
2018-Feb-17 04:58N 37°25' W 000°11'613.3
2018-Feb-17 04:30N 37°22' W 000°18'713.4
2018-Feb-17 04:00N 37°18' W 000°25'1013.5
2018-Feb-17 03:17N 37°13' W 000°34'413.4
2018-Feb-17 02:58N 37°11' W 000°39'913.5
2018-Feb-17 02:19N 37°06' W 000°48'  
2018-Feb-14 05:18N 37°33' W 009°21'717.9
2018-Feb-14 04:55N 37°40' W 009°19'717.8
2018-Feb-14 04:31N 37°46' W 009°16'917.9
2018-Feb-14 04:00N 37°55' W 009°12'917.6
2018-Feb-14 03:30N 38°03' W 009°09'917.5
2018-Feb-14 03:00N 38°12' W 009°05'917.7
2018-Feb-14 02:30N 38°20' W 009°01'815.3
2018-Feb-14 02:00N 38°27' W 008°58'510.7
2018-Feb-14 01:30N 38°31' W 008°53'1 0.1
2018-Feb-13 14:49N 38°31' W 008°52'1 3.1
2018-Feb-13 14:28N 38°31' W 008°53'4 8.9
2018-Feb-13 14:00N 38°28' W 008°57'5 9.3
2018-Feb-13 13:30N 38°25' W 009°02'5 9.1
2018-Feb-13 13:00N 38°24' W 009°07'4 8.9
2018-Feb-13 12:30N 38°23' W 009°13'4 8.6
2018-Feb-13 12:00N 38°24' W 009°18'5 9.0
2018-Feb-13 11:30N 38°27' W 009°22'5 9.1
2018-Feb-13 11:00N 38°30' W 009°27'5 9.1
2018-Feb-13 10:30N 38°33' W 009°31'510.0
2018-Feb-13 10:00N 38°36' W 009°36'612.9
2018-Feb-13 09:30N 38°41' W 009°42'713.1
2018-Feb-13 09:00N 38°47' W 009°43'713.2
2018-Feb-13 08:30N 38°54' W 009°43'713.0
2018-Feb-13 08:00N 39°00' W 009°43'713.2
2018-Feb-13 07:30N 39°07' W 009°43'713.5
2018-Feb-13 07:00N 39°14' W 009°44'713.2
2018-Feb-13 06:30N 39°20' W 009°44'812.9
2018-Feb-13 05:51N 39°29' W 009°43'5 0.1
2018-Feb-11 12:44N 39°23' W 009°45'312.0
2018-Feb-11 12:29N 39°21' W 009°45'612.0
2018-Feb-11 12:00N 39°15' W 009°46'612.0
2018-Feb-11 11:29N 39°09' W 009°48'611.9
2018-Feb-11 11:00N 39°03' W 009°49'612.0
2018-Feb-11 10:30N 38°57' W 009°50'612.0
2018-Feb-11 10:00N 38°51' W 009°51'611.7
2018-Feb-11 09:30N 38°45' W 009°51'611.6
2018-Feb-11 09:00N 38°40' W 009°50'612.3
2018-Feb-11 08:30N 38°34' W 009°48'714.2
2018-Feb-11 08:01N 38°27' W 009°46'815.8
2018-Feb-11 07:30N 38°19' W 009°44'611.6
2018-Feb-11 06:57N 38°13' W 009°42'4 7.9
2018-Feb-11 06:30N 38°09' W 009°41'4 7.8
2018-Feb-11 05:58N 38°05' W 009°40'7 7.7
2018-Feb-11 05:01N 37°58' W 009°38'0 7.8
2018-Feb-11 05:00N 37°58' W 009°38'4 8.0
2018-Feb-11 04:27N 37°54' W 009°37'4 8.0
2018-Feb-11 04:00N 37°50' W 009°36'4 7.9
2018-Feb-11 03:29N 37°46' W 009°35'4 7.8
2018-Feb-11 03:00N 37°42' W 009°34'216 8.1
2018-Feb-10 00:22N 35°58' W 005°37'3 7.1
2018-Feb-09 23:53N 35°59' W 005°33'3 7.9
2018-Feb-09 23:30N 35°60' W 005°30'4 8.5
2018-Feb-09 23:00N 36°01' W 005°25'2 8.7
2018-Feb-09 22:46N 36°02' W 005°22'2 8.6
2018-Feb-09 22:31N 36°02' W 005°20'5 9.6
2018-Feb-09 22:01N 36°05' W 005°15'4 0.2
2018-Feb-08 23:30N 36°01' W 005°16'612.1
2018-Feb-08 23:00N 35°59' W 005°22'611.6
2018-Feb-08 22:30N 35°56' W 005°29'  

Dump ship's entire track history